Time;durP1;ratioP1;P1;durP2;ratioP2;P2;SDS_P1;SDS_P2;PMS_P1;PMS_P2;Temp;Humidity;BMP_temperature;BMP_pressure;BME280_temperature;BME280_humidity;BME280_pressure;Samples;Min_cycle;Max_cycle;Signal;HPM_P1;HPM_P2
2022/04/23 00:01:40;;;;;;;21.15;14.63;;;26.20;99.90;;;;;;1801933;77;21084;-73
2022/04/23 00:04:12;;;;;;;21.40;15.35;;;26.30;99.90;;;;;;1806760;79;21247;-73
2022/04/23 00:06:43;;;;;;;22.42;15.58;;;26.30;99.90;;;;;;1789289;79;21091;-73
2022/04/23 00:09:14;;;;;;;22.00;15.48;;;26.30;99.90;;;;;;1805753;77;21099;-73
2022/04/23 00:11:47;;;;;;;19.75;16.05;;;26.40;99.90;;;;;;1813265;79;21552;-73
2022/04/23 00:14:18;;;;;;;24.40;17.48;;;26.40;99.90;;;;;;1797787;79;21606;-73
2022/04/23 00:16:50;;;;;;;24.80;17.00;;;26.40;99.90;;;;;;1821461;79;21238;-73
2022/04/23 00:19:21;;;;;;;20.00;15.72;;;26.40;99.90;;;;;;1816401;78;21130;-73
2022/04/23 00:21:55;;;;;;;22.00;16.20;;;26.50;99.90;;;;;;1819581;79;21170;-73
2022/04/23 00:24:28;;;;;;;19.02;14.00;;;26.50;99.90;;;;;;1815563;79;21776;-74
2022/04/23 00:26:59;;;;;;;21.73;14.28;;;26.50;99.90;;;;;;1799119;79;21593;-74
2022/04/23 00:29:31;;;;;;;20.55;15.00;;;26.50;99.90;;;;;;1788941;80;21080;-73
2022/04/23 00:32:01;;;;;;;18.40;14.55;;;26.60;99.90;;;;;;1775773;80;21178;-74
2022/04/23 00:34:34;;;;;;;20.75;13.00;;;26.60;99.90;;;;;;1724335;79;21104;-75
2022/04/23 00:37:05;;;;;;;17.02;13.30;;;26.60;99.90;;;;;;1775632;80;21181;-73
2022/04/23 00:39:37;;;;;;;16.52;13.45;;;26.70;99.90;;;;;;1773220;80;21180;-77
2022/04/23 00:42:11;;;;;;;15.65;12.88;;;26.70;99.80;;;;;;1773983;79;21268;-75
2022/04/23 00:44:42;;;;;;;16.80;14.07;;;26.70;99.70;;;;;;1764534;80;21174;-74
2022/04/23 00:47:13;;;;;;;17.45;13.85;;;26.70;99.60;;;;;;1775642;80;21251;-76
2022/04/23 00:49:44;;;;;;;20.70;14.05;;;26.80;99.70;;;;;;1781309;80;21172;-76
2022/04/23 00:52:15;;;;;;;21.25;14.40;;;26.80;99.70;;;;;;1778963;80;21637;-76
2022/04/23 00:54:46;;;;;;;19.70;14.05;;;26.90;99.50;;;;;;1768692;80;21133;-74
2022/04/23 00:57:18;;;;;;;17.35;13.32;;;26.90;99.50;;;;;;1772279;80;21161;-75
2022/04/23 00:59:50;;;;;;;18.30;12.68;;;27.00;99.60;;;;;;1827820;76;21161;-74
2022/04/23 01:02:22;;;;;;;18.27;13.90;;;27.10;99.50;;;;;;1845708;76;21652;-74
2022/04/23 01:04:54;;;;;;;17.62;13.40;;;27.10;99.30;;;;;;1855379;76;21052;-72
2022/04/23 01:07:25;;;;;;;18.12;12.45;;;27.20;99.40;;;;;;1872708;76;21087;-73
2022/04/23 01:09:56;;;;;;;20.55;12.68;;;27.20;98.90;;;;;;1874678;76;21155;-75
2022/04/23 01:12:28;;;;;;;20.23;13.25;;;27.30;98.90;;;;;;1834144;77;21063;-73
2022/04/23 01:15:01;;;;;;;18.50;12.98;;;27.30;98.60;;;;;;1828957;77;21110;-75
2022/04/23 01:17:33;;;;;;;16.93;13.32;;;27.30;98.40;;;;;;1806197;79;21585;-73
2022/04/23 01:20:06;;;;;;;19.75;12.95;;;27.40;98.40;;;;;;1854426;76;21134;-73
2022/04/23 01:22:39;;;;;;;18.98;13.80;;;27.40;98.50;;;;;;1867780;76;21682;-73
2022/04/23 01:25:12;;;;;;;17.35;13.10;;;27.50;98.40;;;;;;1863077;76;21169;-73
2022/04/23 01:27:48;;;;;;;18.50;13.58;;;27.50;98.40;;;;;;1844775;76;21087;-74
2022/04/23 01:30:18;;;;;;;16.35;12.68;;;27.60;98.40;;;;;;1848185;75;21666;-74
2022/04/23 01:32:49;;;;;;;17.82;12.53;;;27.70;98.30;;;;;;1855470;75;21137;-75
2022/04/23 01:35:20;;;;;;;17.20;12.45;;;27.70;98.30;;;;;;1848915;76;21151;-74
2022/04/23 01:37:51;;;;;;;17.82;14.20;;;27.80;98.20;;;;;;1857272;76;21185;-75
2022/04/23 01:40:22;;;;;;;18.55;13.08;;;27.90;98.20;;;;;;1855827;76;21186;-74
2022/04/23 01:42:53;;;;;;;17.55;13.05;;;28.00;98.00;;;;;;1849840;76;21083;-75
2022/04/23 01:45:24;;;;;;;20.02;12.88;;;28.00;97.90;;;;;;1854075;76;21083;-75
2022/04/23 01:47:55;;;;;;;18.67;13.58;;;28.10;97.70;;;;;;1810869;77;21127;-74
2022/04/23 01:50:28;;;;;;;17.80;13.32;;;28.20;97.40;;;;;;1848556;76;21174;-74
2022/04/23 01:53:02;;;;;;;16.97;13.75;;;28.30;97.00;;;;;;1859029;75;21087;-73
2022/04/23 01:55:33;;;;;;;17.02;13.08;;;28.40;96.50;;;;;;1844314;76;21157;-74
2022/04/23 01:58:04;;;;;;;18.82;12.73;;;28.50;96.60;;;;;;1846430;76;21141;-74
2022/04/23 02:00:36;;;;;;;20.10;13.85;;;28.60;96.50;;;;;;1845003;76;21114;-74
2022/04/23 02:03:08;;;;;;;25.55;14.10;;;28.70;96.40;;;;;;1871063;76;21212;-75
2022/04/23 02:05:39;;;;;;;20.08;13.62;;;28.80;96.30;;;;;;1871939;76;21542;-74
2022/04/23 02:08:11;;;;;;;17.73;14.03;;;28.90;96.40;;;;;;1849828;76;21134;-75
2022/04/23 02:10:43;;;;;;;17.32;13.78;;;29.00;95.70;;;;;;1866887;76;21088;-75
2022/04/23 02:13:14;;;;;;;18.07;15.00;;;29.00;95.90;;;;;;1849664;76;21246;-73
2022/04/23 02:15:45;;;;;;;15.72;13.93;;;29.10;95.30;;;;;;1857635;76;21606;-73
2022/04/23 02:18:21;;;;;;;18.42;13.78;;;29.20;95.40;;;;;;1853892;76;21170;-73
2022/04/23 02:20:51;;;;;;;18.95;13.72;;;29.30;95.20;;;;;;1846990;76;21752;-75
2022/04/23 02:23:23;;;;;;;18.75;14.05;;;29.40;94.80;;;;;;1846263;76;21145;-73
2022/04/23 02:25:54;;;;;;;21.33;14.47;;;29.50;94.20;;;;;;1846726;76;21184;-73
2022/04/23 02:28:26;;;;;;;16.50;13.98;;;29.50;94.30;;;;;;1853769;76;21610;-74
2022/04/23 02:30:57;;;;;;;20.95;14.05;;;29.60;94.40;;;;;;1850579;76;21141;-73
2022/04/23 02:33:28;;;;;;;16.55;13.95;;;29.70;94.30;;;;;;1864508;76;21091;-74
2022/04/23 02:35:58;;;;;;;21.02;15.25;;;29.90;93.90;;;;;;1866480;76;21091;-73
2022/04/23 02:38:29;;;;;;;19.92;13.95;;;29.90;93.00;;;;;;1871070;74;21071;-72
2022/04/23 02:41:02;;;;;;;20.05;14.55;;;30.00;93.10;;;;;;1870761;76;21224;-72
2022/04/23 02:43:38;;;;;;;18.80;15.08;;;30.00;92.60;;;;;;1864289;76;21083;-73
2022/04/23 02:46:07;;;;;;;20.17;14.47;;;30.10;92.80;;;;;;1866199;76;21582;-73
2022/04/23 02:48:38;;;;;;;20.68;14.87;;;30.30;95.00;;;;;;1863067;76;21087;-74
2022/04/23 02:51:15;;;;;;;21.85;16.02;;;30.50;97.70;;;;;;1861828;76;21196;-73
2022/04/23 02:53:44;;;;;;;17.57;14.47;;;30.40;96.50;;;;;;1863854;76;21083;-74
2022/04/23 02:56:17;;;;;;;18.25;14.40;;;30.70;93.10;;;;;;1861351;76;21186;-74
2022/04/23 02:58:48;;;;;;;24.60;14.73;;;30.70;92.40;;;;;;1873735;76;21189;-75
2022/04/23 03:01:22;;;;;;;20.32;14.58;;;30.90;91.80;;;;;;1861337;75;21696;-74
2022/04/23 03:03:54;;;;;;;17.30;15.50;;;31.10;91.80;;;;;;1866788;76;21606;-74
2022/04/23 03:06:28;;;;;;;16.93;14.85;;;31.20;88.70;;;;;;1850602;76;21106;-73
2022/04/23 03:09:02;;;;;;;16.85;14.58;;;31.20;89.50;;;;;;1857148;76;21095;-73
2022/04/23 03:11:31;;;;;;;18.67;14.95;;;31.30;89.90;;;;;;1859122;76;21505;-72
2022/04/23 03:14:03;;;;;;;18.60;14.65;;;31.50;97.90;;;;;;1864165;76;21655;-72
2022/04/23 03:16:34;;;;;;;20.25;15.13;;;31.50;90.70;;;;;;1865988;76;21645;-73
2022/04/23 03:19:05;;;;;;;18.73;15.05;;;31.60;91.60;;;;;;1863802;76;21667;-73
2022/04/23 03:21:41;;;;;;;17.52;14.35;;;31.70;88.40;;;;;;1864024;75;21650;-74
2022/04/23 03:24:13;;;;;;;15.53;13.60;;;31.70;88.40;;;;;;1840443;77;21134;-73
2022/04/23 03:26:46;;;;;;;19.55;14.50;;;32.00;91.00;;;;;;1860879;76;21531;-73
2022/04/23 03:29:18;;;;;;;21.55;15.20;;;32.10;92.50;;;;;;1864321;76;21138;-74
2022/04/23 03:31:50;;;;;;;16.05;13.83;;;31.90;91.80;;;;;;1863851;76;21200;-74
2022/04/23 03:34:21;;;;;;;19.98;14.98;;;32.00;91.90;;;;;;1866352;75;21190;-73
2022/04/23 03:36:54;;;;;;;18.52;14.10;;;32.00;91.80;;;;;;1864813;73;21212;-73
2022/04/23 03:39:25;;;;;;;18.92;14.03;;;32.00;91.60;;;;;;1858071;75;21060;-73
2022/04/23 03:42:01;;;;;;;17.85;14.25;;;32.00;91.60;;;;;;1860634;76;21137;-72
2022/04/23 03:44:32;;;;;;;15.50;13.58;;;32.20;93.50;;;;;;1859258;76;21106;-73
2022/04/23 03:47:04;;;;;;;17.87;14.58;;;32.40;93.70;;;;;;1863715;76;21059;-73
2022/04/23 03:49:35;;;;;;;17.48;13.98;;;32.20;83.90;;;;;;1862589;76;21075;-73
2022/04/23 03:52:06;;;;;;;19.17;13.75;;;32.30;82.70;;;;;;1872830;75;21130;-73
2022/04/23 03:54:38;;;;;;;19.10;14.45;;;32.40;83.40;;;;;;1860523;76;21143;-73
2022/04/23 03:57:09;;;;;;;18.10;14.60;;;32.50;83.10;;;;;;1862530;76;21118;-73
2022/04/23 03:59:40;;;;;;;17.32;14.70;;;31.70;82.20;;;;;;1862719;76;21086;-72
2022/04/23 04:02:11;;;;;;;19.57;15.72;;;32.50;82.00;;;;;;1859996;76;21169;-73
2022/04/23 04:04:45;;;;;;;19.85;14.75;;;32.50;83.40;;;;;;1860242;76;21551;-73
2022/04/23 04:07:19;;;;;;;19.70;13.88;;;32.50;82.50;;;;;;1815193;77;21153;-72
2022/04/23 04:09:59;;;;;;;22.62;14.40;;;32.80;88.90;;;;;;1859895;76;21213;-72
2022/04/23 04:12:25;;;;;;;22.13;15.23;;;32.80;90.00;;;;;;1856599;76;21148;-73
2022/04/23 04:14:57;;;;;;;18.73;14.07;;;32.90;90.50;;;;;;1865681;76;21133;-72
2022/04/23 04:17:28;;;;;;;19.37;14.45;;;33.00;90.60;;;;;;1864148;75;21153;-72
2022/04/23 04:20:00;;;;;;;16.42;14.05;;;33.00;86.10;;;;;;1863960;76;21618;-74
2022/04/23 04:22:33;;;;;;;22.95;15.08;;;33.00;84.90;;;;;;1862420;76;21055;-74
2022/04/23 04:25:05;;;;;;;17.80;14.55;;;33.00;83.70;;;;;;1858851;76;21742;-73
2022/04/23 04:27:37;;;;;;;17.55;13.95;;;32.90;83.50;;;;;;1859013;76;21095;-74
2022/04/23 04:30:10;;;;;;;19.02;13.80;;;32.80;82.30;;;;;;1856692;76;21137;-73
2022/04/23 04:32:42;;;;;;;16.23;13.13;;;32.90;82.50;;;;;;1855494;76;21948;-73
2022/04/23 04:35:13;;;;;;;21.30;13.45;;;32.80;83.00;;;;;;1865527;76;21573;-74
2022/04/23 04:37:44;;;;;;;19.73;14.95;;;33.00;82.50;;;;;;1860806;76;21801;-74
2022/04/23 04:40:16;;;;;;;19.62;14.58;;;33.00;81.90;;;;;;1821613;77;21196;-86
2022/04/23 04:42:46;;;;;;;18.42;14.63;;;33.20;81.90;;;;;;1851441;76;21256;-86
2022/04/23 04:45:18;;;;;;;18.50;14.60;;;33.20;80.40;;;;;;1861408;76;21162;-85
2022/04/23 04:47:50;;;;;;;17.60;14.53;;;33.00;80.50;;;;;;1861121;76;21099;-85
2022/04/23 04:50:25;;;;;;;17.40;14.28;;;32.90;80.70;;;;;;1860728;76;21127;-85
2022/04/23 04:53:00;;;;;;;19.73;14.05;;;32.90;81.30;;;;;;1861444;76;21141;-84
2022/04/23 04:55:39;;;;;;;19.48;14.60;;;32.80;81.50;;;;;;1858980;76;21232;-84
2022/04/23 04:58:16;;;;;;;21.70;14.45;;;32.90;81.70;;;;;;1859783;76;21146;-85
2022/04/23 05:00:44;;;;;;;15.10;13.00;;;33.00;80.40;;;;;;1803763;78;21184;-86
2022/04/23 05:03:19;;;;;;;16.97;13.35;;;33.30;79.00;;;;;;1856217;76;21126;-84
2022/04/23 05:05:51;;;;;;;17.57;13.25;;;33.40;83.30;;;;;;1861982;76;21123;-85
2022/04/23 05:08:22;;;;;;;16.90;13.05;;;33.50;88.20;;;;;;1865710;76;21209;-87
2022/04/23 05:10:52;;;;;;;15.88;12.25;;;33.80;86.10;;;;;;1868001;76;21169;-86
2022/04/23 05:13:23;;;;;;;16.60;12.30;;;33.90;88.10;;;;;;1880154;76;21660;-84
2022/04/23 05:16:02;;;;;;;16.85;12.20;;;34.00;88.20;;;;;;1881639;76;21055;-86
2022/04/23 05:18:35;;;;;;;16.77;12.75;;;34.20;88.40;;;;;;1881659;75;21189;-85
2022/04/23 05:21:06;;;;;;;15.90;13.53;;;34.00;88.20;;;;;;1879545;76;21157;-84
2022/04/23 05:23:37;;;;;;;16.27;12.20;;;34.00;89.00;;;;;;1880228;76;21169;-84
2022/04/23 05:26:12;;;;;;;15.18;12.85;;;33.90;88.10;;;;;;1881784;75;21059;-85
2022/04/23 05:28:41;;;;;;;18.67;12.30;;;33.60;88.10;;;;;;1882049;76;21075;-85
2022/04/23 05:31:12;;;;;;;15.65;12.37;;;33.70;88.50;;;;;;1881145;75;21087;-85
2022/04/23 05:33:43;;;;;;;16.20;12.78;;;33.70;88.30;;;;;;1880242;76;21134;-86
2022/04/23 05:36:14;;;;;;;18.20;12.73;;;33.90;87.30;;;;;;1855885;76;21160;-85
2022/04/23 05:38:46;;;;;;;18.82;13.28;;;34.00;85.80;;;;;;1868803;75;21138;-86
2022/04/23 05:41:17;;;;;;;19.57;13.70;;;34.20;73.50;;;;;;1881788;76;21122;-84
2022/04/23 05:43:48;;;;;;;13.38;11.25;;;34.20;69.50;;;;;;1867845;76;21094;-86
2022/04/23 05:46:19;;;;;;;16.70;12.25;;;34.30;69.10;;;;;;1861843;76;21152;-86
2022/04/23 05:48:50;;;;;;;16.30;12.58;;;34.40;67.70;;;;;;1881747;76;21172;-85
2022/04/23 05:51:21;;;;;;;19.55;13.95;;;34.50;67.10;;;;;;1882119;76;21169;-86
2022/04/23 05:53:56;;;;;;;17.42;12.23;;;34.50;67.50;;;;;;1810499;76;21110;-85
2022/04/23 05:56:26;;;;;;;17.30;12.05;;;34.60;66.90;;;;;;1868358;76;21144;-85
2022/04/23 05:58:57;;;;;;;18.15;12.40;;;34.70;66.60;;;;;;1849890;77;21067;-84
2022/04/23 06:01:28;;;;;;;17.25;12.82;;;34.70;65.70;;;;;;1850181;77;21164;-85
2022/04/23 06:03:59;;;;;;;13.78;11.78;;;34.90;66.90;;;;;;1853024;76;21164;-85
2022/04/23 06:06:30;;;;;;;13.65;11.33;;;34.90;64.90;;;;;;1875070;76;21192;-85
2022/04/23 06:09:02;;;;;;;15.70;10.88;;;35.00;63.40;;;;;;1850829;76;21177;-87
2022/04/23 06:11:33;;;;;;;15.68;11.60;;;35.00;62.50;;;;;;1865487;76;21122;-86
2022/04/23 06:14:04;;;;;;;15.53;11.05;;;35.00;63.40;;;;;;1879305;76;21376;-85
2022/04/23 06:16:37;;;;;;;15.28;11.60;;;35.00;62.90;;;;;;1885238;75;21138;-84
2022/04/23 06:19:08;;;;;;;14.63;11.22;;;35.10;63.20;;;;;;1860326;76;21091;-85
2022/04/23 06:21:39;;;;;;;13.95;11.05;;;35.10;61.20;;;;;;1855188;76;21199;-86
2022/04/23 06:24:10;;;;;;;15.58;11.40;;;35.10;61.30;;;;;;1871769;75;21120;-84
2022/04/23 06:26:41;;;;;;;15.55;11.45;;;35.10;60.30;;;;;;1891351;74;21079;-84
2022/04/23 06:29:12;;;;;;;15.70;12.05;;;35.10;60.50;;;;;;1853154;76;21096;-85
2022/04/23 06:31:43;;;;;;;19.40;11.22;;;35.10;60.90;;;;;;1878677;76;21064;-85
2022/04/23 06:34:14;;;;;;;15.45;11.65;;;35.00;59.00;;;;;;1877680;76;21206;-85
2022/04/23 06:36:45;;;;;;;19.12;12.25;;;35.00;60.40;;;;;;1875759;76;21886;-86
2022/04/23 06:39:16;;;;;;;14.33;11.90;;;35.00;60.60;;;;;;1868697;76;21083;-84
2022/04/23 06:41:47;;;;;;;13.72;11.22;;;35.00;61.40;;;;;;1878336;76;21149;-86
2022/04/23 06:44:18;;;;;;;15.58;11.05;;;35.00;60.40;;;;;;1869988;76;21067;-85
2022/04/23 06:46:53;;;;;;;14.93;11.35;;;35.10;60.30;;;;;;1854852;76;21075;-85
2022/04/23 06:49:26;;;;;;;18.15;12.70;;;35.10;59.30;;;;;;1862860;76;21154;-84
2022/04/23 06:51:57;;;;;;;12.53;11.28;;;35.10;59.90;;;;;;1869370;76;21079;-85
2022/04/23 06:54:28;;;;;;;15.03;11.10;;;35.20;59.60;;;;;;1878648;76;21580;-84
2022/04/23 06:57:00;;;;;;;15.15;10.98;;;35.20;61.50;;;;;;1878868;76;21092;-84
2022/04/23 06:59:32;;;;;;;14.80;11.93;;;35.20;59.90;;;;;;1868165;76;21173;-83
2022/04/23 07:02:07;;;;;;;14.58;11.60;;;35.20;59.70;;;;;;1847843;76;21210;-84
2022/04/23 07:04:38;;;;;;;16.02;12.68;;;35.10;60.00;;;;;;1853807;76;21169;-85
2022/04/23 07:07:10;;;;;;;13.40;11.63;;;35.00;59.90;;;;;;1855523;76;21134;-85
2022/04/23 07:09:43;;;;;;;15.48;12.68;;;35.00;60.00;;;;;;1865968;76;21542;-85
2022/04/23 07:12:14;;;;;;;15.98;11.95;;;35.00;60.90;;;;;;1847712;76;21071;-85
2022/04/23 07:14:47;;;;;;;15.23;11.60;;;35.00;61.10;;;;;;1859344;76;21133;-86
2022/04/23 07:17:21;;;;;;;17.15;13.40;;;35.00;60.80;;;;;;1847635;76;21102;-84
2022/04/23 07:19:54;;;;;;;;;;;35.00;60.90;;;;;;1875972;76;21193;-84
2022/04/23 07:22:28;;;;;;;17.32;12.03;;;35.00;60.50;;;;;;1850912;76;20118;-83
2022/04/23 07:24:59;;;;;;;17.42;12.53;;;35.10;60.40;;;;;;1847840;76;21099;-84
2022/04/23 07:27:30;;;;;;;16.15;11.18;;;35.10;59.70;;;;;;1815629;78;21180;-84
2022/04/23 07:30:01;;;;;;;15.63;11.20;;;35.10;59.20;;;;;;1852337;76;21063;-84
2022/04/23 07:32:32;;;;;;;16.35;11.95;;;35.10;59.90;;;;;;1850193;77;21212;-84
2022/04/23 07:37:36;;;;;;;16.95;12.50;;;35.00;59.60;;;;;;1864028;76;21142;-84
2022/04/23 07:40:10;;;;;;;19.35;11.63;;;34.90;60.70;;;;;;1877110;75;21140;-84
2022/04/23 07:42:41;;;;;;;17.23;12.20;;;34.90;61.30;;;;;;1912072;74;21082;-85
2022/04/23 07:45:13;;;;;;;18.20;12.00;;;34.90;59.50;;;;;;1901292;75;21086;-84
2022/04/23 07:47:44;;;;;;;15.13;13.03;;;34.90;58.30;;;;;;1910393;74;21155;-84
2022/04/23 07:50:15;;;;;;;18.10;12.03;;;35.00;59.00;;;;;;1897148;75;21133;-84
2022/04/23 07:52:46;;;;;;;16.62;12.10;;;35.00;58.70;;;;;;1913103;74;21093;-84
2022/04/23 07:55:17;;;;;;;15.88;11.70;;;35.00;57.60;;;;;;1897731;75;21065;-84
2022/04/23 07:57:54;;;;;;;15.58;11.48;;;35.10;57.30;;;;;;1906835;74;21078;-83
2022/04/23 08:00:26;;;;;;;15.13;12.28;;;35.00;57.00;;;;;;1905814;75;21193;-83
2022/04/23 08:02:57;;;;;;;16.32;12.45;;;35.00;58.10;;;;;;1917176;74;21165;-83
2022/04/23 08:05:29;;;;;;;15.95;11.90;;;35.00;58.60;;;;;;1897504;75;21545;-84
2022/04/23 08:08:00;;;;;;;14.28;11.38;;;35.00;58.30;;;;;;1895688;74;21136;-84
2022/04/23 08:10:34;;;;;;;14.50;10.82;;;35.00;58.80;;;;;;1883110;76;21094;-83
2022/04/23 08:13:05;;;;;;;20.60;12.47;;;35.00;58.60;;;;;;1924163;74;21124;-84
2022/04/23 08:15:36;;;;;;;15.08;11.12;;;35.00;59.00;;;;;;1891826;75;21098;-84
2022/04/23 08:18:08;;;;;;;16.60;12.43;;;35.10;59.00;;;;;;1906398;74;21089;-83
2022/04/23 08:20:43;;;;;;;14.38;11.10;;;35.10;59.20;;;;;;1882900;76;21085;-84
2022/04/23 08:23:11;;;;;;;17.35;11.90;;;35.10;59.50;;;;;;1910059;75;21136;-83
2022/04/23 08:25:45;;;;;;;18.50;12.30;;;35.10;58.40;;;;;;1927703;74;21207;-85
2022/04/23 08:31:02;;;;;;;15.03;12.20;;;35.20;57.80;;;;;;1890673;75;21160;-83
2022/04/23 08:36:08;;;;;;;16.87;12.58;;;35.10;57.60;;;;;;1912539;75;21557;-84
2022/04/23 08:38:42;;;;;;;14.95;11.50;;;35.00;57.60;;;;;;1928512;74;21097;-85
2022/04/23 08:41:15;;;;;;;;;;;35.00;57.70;;;;;;1906728;74;21165;-83
2022/04/23 08:43:47;;;;;;;16.65;12.37;;;34.90;57.30;;;;;;1887112;75;20179;-84
2022/04/23 08:46:22;;;;;;;19.30;13.20;;;34.90;57.60;;;;;;1910890;74;21081;-83
2022/04/23 08:48:56;;;;;;;17.62;12.65;;;34.90;60.70;;;;;;1901180;75;21159;-85
2022/04/23 08:51:31;;;;;;;15.28;12.13;;;34.80;64.30;;;;;;1912462;74;21141;-84
2022/04/23 08:54:08;;;;;;;17.25;12.78;;;34.70;65.30;;;;;;1899518;75;21554;-85
2022/04/23 08:56:41;;;;;;;20.17;13.53;;;34.60;67.50;;;;;;1858306;75;21093;-84
2022/04/23 08:59:17;;;;;;;18.77;14.15;;;34.50;67.40;;;;;;1911194;73;21194;-85
2022/04/23 09:01:49;;;;;;;22.27;13.83;;;34.40;68.20;;;;;;1898697;74;21118;-86
2022/04/23 09:04:20;;;;;;;19.62;12.75;;;34.30;69.00;;;;;;1909713;74;21085;-84
2022/04/23 09:06:51;;;;;;;16.80;12.40;;;34.20;69.20;;;;;;1899089;75;21148;-85
2022/04/23 09:09:25;;;;;;;18.65;13.98;;;34.20;69.20;;;;;;1904121;74;21202;-84
2022/04/23 09:11:59;;;;;;;19.60;14.13;;;34.10;69.30;;;;;;1900889;75;21195;-84
2022/04/23 09:14:35;;;;;;;15.83;12.95;;;34.10;70.40;;;;;;1901117;74;21055;-84
2022/04/23 09:24:51;;;;;;;18.70;14.35;;;33.80;71.10;;;;;;1908842;74;21093;-84
2022/04/23 09:27:24;;;;;;;20.88;14.73;;;33.80;70.70;;;;;;1915611;75;21078;-83
2022/04/23 09:29:58;;;;;;;15.60;12.78;;;33.70;70.70;;;;;;1928763;73;21129;-83
2022/04/23 09:32:29;;;;;;;18.48;12.82;;;33.60;70.90;;;;;;1914883;75;21117;-83
2022/04/23 09:35:02;;;;;;;19.10;12.10;;;33.60;70.90;;;;;;1910109;74;21143;-84
2022/04/23 09:40:08;;;;;;;17.67;13.00;;;33.60;71.50;;;;;;1880903;76;21137;-84
2022/04/23 09:42:39;;;;;;;16.52;13.13;;;33.50;71.30;;;;;;1850363;76;21166;-84
2022/04/23 09:45:12;;;;;;;17.60;13.10;;;33.50;71.20;;;;;;1876797;76;21151;-83
2022/04/23 09:47:45;;;;;;;25.43;15.90;;;33.40;71.50;;;;;;1875929;76;21214;-83
2022/04/23 09:50:16;;;;;;;22.15;14.47;;;33.40;71.60;;;;;;1875896;76;21134;-84
2022/04/23 09:52:49;;;;;;;21.12;13.78;;;33.30;72.10;;;;;;1873537;76;21091;-84
2022/04/23 09:55:22;;;;;;;19.55;13.75;;;33.20;72.30;;;;;;1846924;76;21135;-85
2022/04/23 09:57:57;;;;;;;19.07;13.03;;;33.30;72.60;;;;;;1851640;76;21083;-84
2022/04/23 10:00:29;;;;;;;19.85;14.33;;;33.20;72.80;;;;;;1865336;76;21540;-84
2022/04/23 10:03:01;;;;;;;18.75;13.72;;;33.20;73.00;;;;;;1855453;76;21130;-85
2022/04/23 10:05:33;;;;;;;18.02;13.50;;;33.20;72.80;;;;;;1815986;77;21292;-84
2022/04/23 10:08:07;;;;;;;17.50;14.18;;;33.20;72.80;;;;;;1882474;75;21115;-85
2022/04/23 10:10:40;;;;;;;23.07;16.80;;;33.10;73.10;;;;;;1901710;75;21052;-86
2022/04/23 10:13:13;;;;;;;19.02;14.60;;;33.10;74.10;;;;;;1889472;75;21094;-84
2022/04/23 10:15:46;;;;;;;19.37;14.68;;;33.10;73.30;;;;;;1879557;76;21095;-85
2022/04/23 10:18:16;;;;;;;22.73;16.15;;;33.10;73.30;;;;;;1868539;76;21142;-83
2022/04/23 10:20:57;;;;;;;20.45;15.35;;;33.00;73.20;;;;;;1879343;75;21083;-85
2022/04/23 10:23:27;;;;;;;21.35;17.00;;;32.90;73.30;;;;;;1881602;76;21067;-85
2022/04/23 10:26:02;;;;;;;18.42;14.55;;;32.90;73.50;;;;;;1887552;74;21132;-84
2022/04/23 10:28:33;;;;;;;22.62;14.18;;;32.90;73.70;;;;;;1876594;76;21083;-85
2022/04/23 10:31:08;;;;;;;19.07;14.40;;;32.90;73.70;;;;;;1878486;75;21075;-84
2022/04/23 10:33:42;;;;;;;20.40;14.98;;;32.90;73.60;;;;;;1883139;74;21200;-86
2022/04/23 10:36:13;;;;;;;18.50;14.38;;;32.80;73.70;;;;;;1873399;76;21064;-84
2022/04/23 10:38:51;;;;;;;19.07;14.35;;;32.80;73.70;;;;;;1852263;74;21102;-84
2022/04/23 10:41:22;;;;;;;19.77;14.70;;;32.80;73.80;;;;;;1865394;75;21543;-83
2022/04/23 10:43:57;;;;;;;27.02;15.55;;;32.80;73.80;;;;;;1881894;76;21193;-85
2022/04/23 10:46:30;;;;;;;21.50;15.38;;;32.80;74.00;;;;;;1882299;75;21065;-85
2022/04/23 10:49:04;;;;;;;20.60;15.72;;;32.70;73.90;;;;;;1889564;74;21079;-85
2022/04/23 10:51:37;;;;;;;20.95;13.75;;;32.70;74.10;;;;;;1883646;76;21082;-84
2022/04/23 10:54:08;;;;;;;23.67;15.03;;;32.70;74.20;;;;;;1879047;75;21206;-84
2022/04/23 10:56:40;;;;;;;19.85;14.53;;;32.70;73.90;;;;;;1864076;76;21134;-84
2022/04/23 10:59:13;;;;;;;19.65;15.13;;;32.70;74.10;;;;;;1860683;76;21064;-85
2022/04/23 11:01:48;;;;;;;19.32;15.05;;;32.70;74.20;;;;;;1859103;76;21396;-84
2022/04/23 11:04:21;;;;;;;21.85;15.60;;;32.70;74.50;;;;;;1860489;76;21145;-84
2022/04/23 11:14:39;;;;;;;23.67;16.48;;;32.60;75.00;;;;;;1863298;75;21155;-83
2022/04/23 11:17:13;;;;;;;22.95;16.25;;;32.50;75.10;;;;;;1864451;75;21172;-84
2022/04/23 11:19:45;;;;;;;26.62;16.20;;;32.50;75.50;;;;;;1857915;76;21047;-85
2022/04/23 11:22:16;;;;;;;23.62;16.20;;;32.50;75.50;;;;;;1861269;76;21134;-84
2022/04/23 11:24:50;;;;;;;19.35;14.65;;;32.60;75.60;;;;;;1870296;75;21185;-84
2022/04/23 11:27:24;;;;;;;20.12;15.45;;;32.50;75.40;;;;;;1870548;75;21063;-84
2022/04/23 11:29:55;;;;;;;20.60;14.43;;;32.50;75.50;;;;;;1858858;75;21182;-84
2022/04/23 11:32:28;;;;;;;25.88;18.00;;;32.40;75.60;;;;;;1872575;76;21204;-84
2022/04/23 11:35:01;;;;;;;26.73;19.35;;;32.40;75.90;;;;;;1880033;76;21059;-84
2022/04/23 11:37:35;;;;;;;30.35;18.82;;;32.40;76.20;;;;;;1870282;76;21511;-84
2022/04/23 11:40:08;;;;;;;24.25;17.67;;;32.40;76.30;;;;;;1850123;77;21099;-84
2022/04/23 11:42:41;;;;;;;25.57;19.67;;;32.30;76.40;;;;;;1851413;77;21083;-85
2022/04/23 11:45:14;;;;;;;21.33;16.95;;;32.40;76.70;;;;;;1855450;76;21075;-84
2022/04/23 11:47:47;;;;;;;20.82;15.48;;;32.30;76.70;;;;;;1798366;79;21137;-83
2022/04/23 11:50:23;;;;;;;21.40;16.42;;;32.30;76.60;;;;;;1865424;76;21173;-85
2022/04/23 11:53:05;;;;;;;24.65;18.05;;;32.30;76.50;;;;;;1865926;76;21099;-84
2022/04/23 11:55:35;;;;;;;24.55;18.87;;;32.30;76.80;;;;;;1866496;76;21138;-84
2022/04/23 11:58:07;;;;;;;28.05;23.05;;;32.30;76.70;;;;;;1868397;76;21135;-83
2022/04/23 12:00:38;;;;;;;35.23;28.27;;;32.30;76.80;;;;;;1859162;76;21070;-85
2022/04/23 12:03:10;;;;;;;36.08;27.40;;;32.30;76.40;;;;;;1811803;79;21105;-85
2022/04/23 12:05:42;;;;;;;36.77;27.60;;;32.20;76.20;;;;;;1866322;76;21074;-85
2022/04/23 12:08:21;;;;;;;28.55;21.42;;;32.20;76.00;;;;;;1874409;76;21158;-84
2022/04/23 12:10:51;;;;;;;;;;;32.20;76.00;;;;;;1881308;75;21527;-85
2022/04/23 12:13:28;;;;;;;20.75;16.55;;;32.20;76.10;;;;;;1868979;76;20124;-86
2022/04/23 12:16:07;;;;;;;21.25;16.50;;;32.20;76.00;;;;;;1853475;75;21139;-85
2022/04/23 12:18:38;;;;;;;22.17;16.30;;;32.20;75.90;;;;;;1869391;76;21242;-85
2022/04/23 12:21:09;;;;;;;23.75;15.55;;;32.10;76.20;;;;;;1864454;76;21149;-84
2022/04/23 12:23:42;;;;;;;25.15;16.87;;;32.20;76.20;;;;;;1861458;76;21200;-84
2022/04/23 12:26:18;;;;;;;21.82;16.20;;;32.10;76.20;;;;;;1867049;76;21107;-85
2022/04/23 12:41:35;;;;;;;21.35;17.05;;;32.10;76.80;;;;;;1867840;76;21153;-86
2022/04/23 12:44:09;;;;;;;23.32;18.60;;;32.10;76.90;;;;;;1867918;75;21229;-84
2022/04/23 12:46:46;;;;;;;25.60;18.60;;;32.00;77.30;;;;;;1865577;76;21094;-84
2022/04/23 12:49:16;;;;;;;24.50;16.95;;;32.10;78.00;;;;;;1831478;78;21464;-83
2022/04/23 12:51:51;;;;;;;27.32;17.12;;;32.00;78.30;;;;;;1874790;76;21156;-83
2022/04/23 12:54:24;;;;;;;21.85;17.27;;;32.00;78.90;;;;;;1883337;75;21071;-82
2022/04/23 12:56:57;;;;;;;23.77;17.85;;;32.00;79.30;;;;;;1854296;76;21066;-83
2022/04/23 12:59:28;;;;;;;25.52;18.00;;;32.00;79.30;;;;;;1882595;76;21095;-83
2022/04/23 13:02:03;;;;;;;24.70;18.57;;;31.90;79.30;;;;;;1874964;76;21039;-84
2022/04/23 13:04:35;;;;;;;24.67;18.40;;;31.90;79.50;;;;;;1868387;76;21087;-84
2022/04/23 13:09:38;;;;;;;22.85;19.52;;;31.90;79.80;;;;;;1854297;76;21118;-84
2022/04/23 13:12:10;;;;;;;27.30;21.23;;;31.90;80.00;;;;;;1884564;75;21566;-84
2022/04/23 13:14:44;;;;;;;28.15;20.88;;;31.90;80.30;;;;;;1875224;76;21142;-84
2022/04/23 13:17:15;;;;;;;25.15;18.92;;;31.80;80.30;;;;;;1865585;76;21164;-84
2022/04/23 13:19:47;;;;;;;24.27;19.30;;;31.80;80.40;;;;;;1872818;76;21079;-84
2022/04/23 13:22:18;;;;;;;25.72;19.57;;;31.80;80.90;;;;;;1861764;76;21133;-84
2022/04/23 13:24:53;;;;;;;26.05;18.85;;;31.80;81.10;;;;;;1865749;75;21087;-85
2022/04/23 13:27:24;;;;;;;26.37;18.30;;;31.70;81.20;;;;;;1868206;76;21605;-85
2022/04/23 13:29:55;;;;;;;21.55;16.97;;;31.70;81.70;;;;;;1879126;76;21158;-83
2022/04/23 13:32:26;;;;;;;21.27;17.15;;;31.80;84.20;;;;;;1857587;76;21217;-83
2022/04/23 13:34:58;;;;;;;22.25;17.57;;;31.80;84.90;;;;;;1863698;76;21176;-83